createdAt,value
2018-09-28T00:00:14.492Z,51.06
2018-09-28T00:02:42.369Z,51.02
2018-09-28T00:05:09.885Z,51.21
2018-09-28T00:07:37.384Z,51.14
2018-09-28T00:10:04.942Z,51.06
2018-09-28T00:12:32.798Z,51.36
2018-09-28T00:15:00.307Z,50.63
2018-09-28T00:17:27.792Z,51.50
2018-09-28T00:19:55.346Z,51.56
2018-09-28T00:22:23.220Z,51.72
2018-09-28T00:24:50.701Z,51.92
2018-09-28T00:27:18.948Z,52.12
2018-09-28T00:29:46.468Z,51.92
2018-09-28T00:32:14.431Z,51.81
2018-09-28T00:34:41.927Z,52.64
2018-09-28T00:37:09.472Z,52.19
2018-09-28T00:39:36.972Z,52.34
2018-09-28T00:42:05.932Z,52.79
2018-09-28T00:44:33.519Z,52.54
2018-09-28T00:47:01.053Z,52.82
2018-09-28T00:49:28.589Z,52.64
2018-09-28T00:51:56.600Z,52.69
2018-09-28T00:54:24.117Z,52.89
2018-09-28T00:56:51.681Z,53.13
2018-09-28T00:59:19.191Z,52.72
2018-09-28T01:01:47.796Z,52.73
2018-09-28T01:04:15.296Z,53.22
2018-09-28T01:06:42.799Z,52.36
2018-09-28T01:09:11.435Z,53.23
2018-09-28T01:11:38.935Z,53.03
2018-09-28T01:14:06.464Z,52.74
2018-09-28T01:16:33.950Z,53.17
2018-09-28T01:19:01.905Z,53.00
2018-09-28T01:21:29.512Z,52.83
2018-09-28T01:23:56.990Z,52.82
2018-09-28T01:26:24.499Z,53.08
2018-09-28T01:28:52.343Z,53.36
2018-09-28T01:31:19.868Z,53.38
2018-09-28T01:33:47.388Z,53.45
2018-09-28T01:36:14.875Z,53.61
2018-09-28T01:38:44.794Z,53.38
2018-09-28T01:41:12.314Z,53.85
2018-09-28T01:43:39.855Z,54.17
2018-09-28T01:46:07.330Z,54.02
2018-09-28T01:48:35.241Z,53.69
2018-09-28T01:51:02.762Z,53.47
2018-09-28T01:53:30.235Z,53.21
2018-09-28T01:55:58.334Z,54.00
2018-09-28T01:58:25.801Z,54.29
2018-09-28T02:00:54.722Z,54.08
2018-09-28T02:03:22.190Z,54.54
2018-09-28T02:05:53.768Z,54.37
2018-09-28T02:08:21.262Z,54.44
2018-09-28T02:10:48.793Z,54.45
2018-09-28T02:13:17.654Z,54.19
2018-09-28T02:15:45.186Z,54.98
2018-09-28T02:18:12.759Z,54.64
2018-09-28T02:20:40.268Z,54.85
2018-09-28T02:23:08.260Z,55.11
2018-09-28T02:25:35.799Z,54.71
2018-09-28T02:28:03.336Z,55.34
2018-09-28T02:30:30.834Z,54.92
2018-09-28T02:32:58.647Z,55.46
2018-09-28T02:35:26.143Z,55.10
2018-09-28T02:37:53.675Z,55.48
2018-09-28T02:40:21.175Z,55.60
2018-09-28T02:42:49.119Z,55.85
2018-09-28T02:45:16.628Z,56.54
2018-09-28T02:47:44.207Z,57.20
2018-09-28T02:50:11.733Z,57.20
2018-09-28T02:52:39.564Z,57.29
2018-09-28T02:55:07.636Z,57.14
2018-09-28T02:57:35.147Z,57.21
2018-09-28T03:00:02.656Z,56.85
2018-09-28T03:02:30.661Z,56.51
2018-09-28T03:04:58.473Z,57.32
2018-09-28T03:07:26.003Z,58.31
2018-09-28T03:09:53.539Z,57.33
2018-09-28T03:12:21.475Z,57.50
2018-09-28T03:14:49.603Z,57.35
2018-09-28T03:17:17.368Z,57.56
2018-09-28T03:19:45.293Z,56.93
2018-09-28T03:22:12.817Z,57.65
2018-09-28T03:24:40.368Z,57.41
2018-09-28T03:27:08.271Z,57.30
2018-09-28T03:29:35.820Z,57.40
2018-09-28T03:32:03.370Z,57.87
2018-09-28T03:34:31.441Z,57.35
2018-09-28T03:36:59.313Z,57.57
2018-09-28T03:39:26.829Z,57.71
2018-09-28T03:41:54.323Z,57.69
2018-09-28T03:44:22.906Z,57.66
2018-09-28T03:46:50.864Z,57.60
2018-09-28T03:49:18.388Z,57.82
2018-09-28T03:51:45.944Z,57.44
2018-09-28T03:54:13.776Z,57.95
2018-09-28T03:56:41.287Z,58.22
2018-09-28T03:59:08.827Z,57.31
2018-09-28T04:01:36.314Z,56.93
2018-09-28T04:04:07.658Z,56.41
2018-09-28T04:06:35.168Z,56.74
2018-09-28T04:09:02.755Z,55.90
2018-09-28T04:11:30.276Z,56.34
2018-09-28T04:13:58.119Z,55.91
2018-09-28T04:16:26.477Z,55.55
2018-09-28T04:18:54.014Z,55.01
2018-09-28T04:21:22.088Z,55.47
2018-09-28T04:23:50.021Z,55.65
2018-09-28T04:26:17.537Z,55.74
2018-09-28T04:28:45.028Z,56.52
2018-09-28T04:31:12.977Z,56.23
2018-09-28T04:33:40.511Z,57.13
2018-09-28T04:36:08.076Z,57.93
2018-09-28T04:38:35.992Z,57.64
2018-09-28T04:41:03.530Z,58.22
2018-09-28T04:43:32.718Z,57.74
2018-09-28T04:46:00.627Z,57.71
2018-09-28T04:48:28.162Z,57.21
2018-09-28T04:50:55.638Z,56.20
2018-09-28T04:53:23.575Z,56.37
2018-09-28T04:55:51.235Z,56.22
2018-09-28T04:58:20.237Z,55.99
2018-09-28T05:00:48.872Z,56.93
2018-09-28T05:03:16.427Z,55.87
2018-09-28T05:05:43.899Z,56.02
2018-09-28T05:08:11.824Z,55.54
2018-09-28T05:10:39.478Z,55.88
2018-09-28T05:13:07.048Z,55.50
2018-09-28T05:15:36.045Z,55.59
2018-09-28T05:18:03.547Z,55.58
2018-09-28T05:20:31.052Z,55.38
2018-09-28T05:22:59.106Z,55.16
2018-09-28T05:25:26.705Z,55.32
2018-09-28T05:27:55.104Z,54.96
2018-09-28T05:30:23.045Z,54.91
2018-09-28T05:32:50.758Z,55.13
2018-09-28T05:35:18.135Z,55.05
2018-09-28T05:37:46.128Z,54.88
2018-09-28T05:40:13.654Z,54.94
2018-09-28T05:42:41.180Z,55.11
2018-09-28T05:45:08.970Z,55.42
2018-09-28T05:47:36.526Z,54.48
2018-09-28T05:50:04.050Z,54.60
2018-09-28T05:52:31.959Z,54.79
2018-09-28T05:54:59.487Z,55.34
2018-09-28T05:57:26.979Z,55.21
2018-09-28T06:00:00.020Z,55.71
2018-09-28T06:02:32.731Z,55.22
2018-09-28T06:05:05.320Z,55.94
2018-09-28T06:07:34.230Z,55.45
2018-09-28T06:10:02.444Z,55.19
2018-09-28T06:12:31.703Z,55.04
2018-09-28T06:15:00.002Z,55.18
2018-09-28T06:17:27.515Z,55.79
2018-09-28T06:19:55.059Z,55.22
2018-09-28T06:22:22.988Z,55.26
2018-09-28T06:24:50.484Z,55.85
2018-09-28T06:27:17.971Z,55.07
2018-09-28T06:29:47.002Z,55.77
2018-09-28T06:32:14.617Z,55.14
2018-09-28T06:34:43.323Z,55.61
2018-09-28T06:37:13.910Z,55.07
2018-09-28T06:39:41.651Z,55.80
2018-09-28T06:42:12.908Z,55.50
2018-09-28T06:44:40.770Z,55.68
2018-09-28T06:47:10.226Z,55.50
2018-09-28T06:49:38.052Z,55.98
2018-09-28T06:52:10.275Z,55.87
2018-09-28T06:54:39.292Z,55.66
2018-09-28T06:57:07.459Z,56.00
2018-09-28T06:59:37.292Z,55.62
2018-09-28T07:02:04.795Z,55.82
2018-09-28T07:04:33.956Z,55.72
2018-09-28T07:07:02.135Z,55.46
2018-09-28T07:09:29.735Z,55.68
2018-09-28T07:11:57.487Z,55.24
2018-09-28T07:14:26.220Z,55.44
2018-09-28T07:16:53.809Z,55.63
2018-09-28T07:19:21.540Z,55.17
2018-09-28T07:21:49.366Z,55.24
2018-09-28T07:24:20.556Z,55.25
2018-09-28T07:26:48.073Z,55.07
2018-09-28T07:29:15.636Z,55.37
2018-09-28T07:31:43.168Z,55.66
2018-09-28T07:34:11.978Z,55.13
2018-09-28T07:36:39.598Z,55.05
2018-09-28T07:39:07.059Z,55.25
2018-09-28T07:41:34.971Z,55.50
2018-09-28T07:44:02.555Z,55.11
2018-09-28T07:46:30.069Z,55.26
2018-09-28T07:48:58.019Z,55.20
2018-09-28T07:51:26.351Z,55.32
2018-09-28T07:53:53.890Z,55.54
2018-09-28T07:56:21.859Z,55.53
2018-09-28T07:58:49.397Z,55.84
2018-09-28T08:01:17.868Z,55.46
2018-09-28T08:03:45.805Z,55.70
2018-09-28T08:06:13.410Z,55.92
2018-09-28T08:08:40.913Z,55.92
2018-09-28T08:11:10.580Z,55.95
2018-09-28T08:13:38.903Z,55.99
2018-09-28T08:16:08.699Z,56.57
2018-09-28T08:18:37.507Z,55.92
2018-09-28T08:21:05.284Z,55.53
2018-09-28T08:23:32.866Z,55.66
2018-09-28T08:26:00.923Z,55.79
2018-09-28T08:28:28.538Z,56.24
2018-09-28T08:30:56.094Z,56.42
2018-09-28T08:33:24.083Z,56.30
2018-09-28T08:35:51.592Z,55.96
2018-09-28T08:38:19.075Z,55.99
2018-09-28T08:40:50.542Z,55.94
2018-09-28T08:43:18.648Z,56.28
2018-09-28T08:45:46.173Z,56.13
2018-09-28T08:48:14.144Z,55.56
2018-09-28T08:50:42.950Z,56.42
2018-09-28T08:53:10.546Z,55.92
2018-09-28T08:55:38.737Z,56.11
2018-09-28T08:58:06.281Z,55.48
2018-09-28T09:00:34.819Z,55.93
2018-09-28T09:03:05.075Z,55.44
2018-09-28T09:05:32.616Z,55.67
2018-09-28T09:08:00.131Z,55.92
2018-09-28T09:10:29.427Z,55.95
2018-09-28T09:12:58.006Z,55.61
2018-09-28T09:15:26.235Z,55.70
2018-09-28T09:17:57.230Z,55.86
2018-09-28T09:20:25.426Z,55.65
2018-09-28T09:22:54.691Z,55.82
2018-09-28T09:25:23.618Z,55.87
2018-09-28T09:27:51.187Z,55.87
2018-09-28T09:30:19.627Z,56.13
2018-09-28T09:32:48.346Z,56.34
2018-09-28T09:35:16.138Z,56.03
2018-09-28T09:37:44.362Z,56.17
2018-09-28T09:40:13.431Z,56.40
2018-09-28T09:42:42.346Z,56.51
2018-09-28T09:45:13.837Z,56.68
2018-09-28T09:47:42.579Z,57.02
2018-09-28T09:50:11.447Z,56.90
2018-09-28T09:52:40.592Z,57.58
2018-09-28T09:55:09.655Z,57.42
2018-09-28T09:57:37.243Z,57.34
2018-09-28T10:00:05.439Z,57.70
2018-09-28T10:02:38.485Z,57.92
2018-09-28T10:05:06.049Z,58.24
2018-09-28T10:07:33.531Z,58.89
2018-09-28T10:10:01.108Z,58.80
2018-09-28T10:12:29.434Z,58.68
2018-09-28T10:14:57.991Z,58.53
2018-09-28T10:17:25.559Z,57.28
2018-09-28T10:19:53.089Z,57.33
2018-09-28T10:22:22.483Z,57.24
2018-09-28T10:24:50.040Z,57.48
2018-09-28T10:27:17.639Z,56.76
2018-09-28T10:29:46.142Z,57.02
2018-09-28T10:32:15.577Z,56.48
2018-09-28T10:34:44.412Z,56.40
2018-09-28T10:37:12.585Z,56.13
2018-09-28T10:39:42.426Z,56.45
2018-09-28T10:42:16.370Z,56.30
2018-09-28T10:44:43.887Z,56.67
2018-09-28T10:47:12.220Z,56.95
2018-09-28T10:49:47.403Z,56.57
2018-09-28T10:52:15.768Z,56.80
2018-09-28T10:54:44.270Z,56.97
2018-09-28T10:57:13.874Z,57.18
2018-09-28T10:59:42.425Z,57.70
2018-09-28T11:02:12.282Z,57.16
2018-09-28T11:12:49.683Z,57.80
2018-09-28T11:15:18.344Z,58.47
2018-09-28T11:17:46.241Z,58.45
2018-09-28T11:20:15.578Z,58.07
2018-09-28T11:22:44.135Z,58.44
2018-09-28T11:25:14.765Z,57.67
2018-09-28T11:27:43.670Z,58.23
2018-09-28T11:30:11.543Z,58.25
2018-09-28T11:32:39.124Z,57.61
2018-09-28T11:35:10.268Z,57.28
2018-09-28T11:37:39.056Z,57.19
2018-09-28T11:40:07.303Z,57.57
2018-09-28T11:42:34.844Z,57.69
2018-09-28T11:45:07.286Z,57.19
2018-09-28T11:47:37.760Z,56.96
2018-09-28T11:50:05.289Z,56.42
2018-09-28T11:52:35.011Z,56.75
2018-09-28T11:55:02.697Z,56.46
2018-09-28T11:57:30.495Z,56.77
2018-09-28T12:00:03.306Z,56.40
2018-09-28T12:02:32.108Z,55.95
2018-09-28T12:05:00.721Z,55.90
2018-09-28T12:07:28.580Z,56.24
2018-09-28T12:09:56.101Z,56.10
2018-09-28T12:12:24.347Z,56.11
2018-09-28T12:14:52.199Z,56.37
2018-09-28T12:17:20.535Z,55.74
2018-09-28T12:19:49.693Z,55.49
2018-09-28T12:22:17.594Z,55.17
2018-09-28T12:24:45.384Z,54.88
2018-09-28T12:27:12.948Z,54.98
2018-09-28T12:29:41.835Z,55.04
2018-09-28T12:32:09.565Z,54.43
2018-09-28T12:34:37.104Z,54.10
2018-09-28T12:37:05.035Z,54.01
2018-09-28T12:39:35.140Z,54.08
2018-09-28T12:42:02.600Z,53.92
2018-09-28T12:44:31.463Z,53.82
2018-09-28T12:47:00.627Z,53.02
2018-09-28T12:49:29.207Z,52.38
2018-09-28T12:52:02.732Z,51.35
2018-09-28T12:54:33.135Z,50.69
2018-09-28T12:57:01.173Z,50.77
2018-09-28T12:59:31.650Z,50.78
2018-09-28T13:01:59.205Z,51.38
2018-09-28T13:04:26.708Z,51.39
2018-09-28T13:06:54.220Z,51.65
2018-09-28T13:09:21.738Z,51.10
2018-09-28T13:11:50.956Z,51.68
2018-09-28T13:14:19.413Z,52.01
2018-09-28T13:16:47.551Z,51.50
2018-09-28T13:19:15.545Z,51.24
2018-09-28T13:21:43.116Z,50.43
2018-09-28T13:24:10.677Z,50.87
2018-09-28T13:26:39.107Z,50.58
2018-09-28T13:29:07.709Z,50.46
2018-09-28T13:31:35.259Z,50.58
2018-09-28T13:34:03.199Z,50.27
2018-09-28T13:36:33.394Z,50.98
2018-09-28T13:39:00.939Z,51.84
2018-09-28T13:41:29.827Z,52.44
2018-09-28T13:43:57.394Z,52.59
2018-09-28T13:46:24.933Z,53.68
2018-09-28T13:48:52.872Z,53.40
2018-09-28T13:51:20.352Z,53.94
2018-09-28T13:53:47.973Z,54.12
2018-09-28T13:56:15.890Z,53.58
2018-09-28T13:58:44.455Z,54.05
2018-09-28T14:01:12.227Z,54.04
2018-09-28T14:03:42.711Z,53.68
2018-09-28T14:06:11.232Z,52.98
2018-09-28T14:08:39.423Z,52.78
2018-09-28T14:11:09.351Z,52.69
2018-09-28T14:13:36.922Z,52.92
2018-09-28T14:16:04.472Z,52.83
2018-09-28T14:18:32.371Z,52.00
2018-09-28T14:20:59.883Z,51.98
2018-09-28T14:23:27.441Z,52.19
2018-09-28T14:25:55.299Z,52.34
2018-09-28T14:28:22.857Z,52.03
2018-09-28T14:30:50.776Z,52.74
2018-09-28T14:33:18.721Z,52.61
2018-09-28T14:35:46.248Z,52.75
2018-09-28T14:38:15.454Z,52.49
2018-09-28T14:40:43.384Z,52.44
2018-09-28T14:43:11.931Z,51.67
2018-09-28T14:45:39.514Z,52.08
2018-09-28T14:48:07.387Z,51.61
2018-09-28T14:50:35.547Z,51.09
2018-09-28T14:53:03.093Z,50.45
2018-09-28T14:55:31.629Z,49.30
2018-09-28T14:58:01.291Z,49.89
2018-09-28T15:00:29.745Z,48.86
2018-09-28T15:02:57.689Z,48.80
2018-09-28T15:05:25.194Z,49.72
2018-09-28T15:07:53.644Z,49.64
2018-09-28T15:10:22.490Z,50.34
2018-09-28T15:12:50.048Z,50.93
2018-09-28T15:15:17.635Z,51.38
2018-09-28T15:17:45.651Z,51.90
2018-09-28T15:20:13.193Z,51.79
2018-09-28T15:22:41.485Z,52.01
2018-09-28T15:25:13.570Z,52.19
2018-09-28T15:27:41.315Z,52.94
2018-09-28T15:30:09.283Z,52.62
2018-09-28T15:32:38.073Z,52.08
2018-09-28T15:35:05.639Z,51.23
2018-09-28T15:37:33.139Z,50.36
2018-09-28T15:40:01.142Z,49.26
2018-09-28T15:42:28.731Z,49.07
2018-09-28T15:44:56.276Z,49.58
2018-09-28T15:47:24.228Z,50.78
2018-09-28T15:49:51.802Z,50.35
2018-09-28T15:52:19.471Z,50.75
2018-09-28T15:54:47.301Z,51.35
2018-09-28T15:57:15.646Z,51.17
2018-09-28T15:59:43.312Z,50.85
2018-09-28T16:02:11.324Z,51.84
2018-09-28T16:04:38.841Z,51.46
2018-09-28T16:22:57.557Z,53.64
2018-09-28T16:25:29.981Z,53.62
2018-09-28T16:27:57.577Z,53.72
2018-09-28T16:33:03.793Z,54.12
2018-09-28T16:35:32.427Z,54.34
2018-09-28T16:38:01.003Z,54.04
2018-09-28T16:40:29.021Z,54.65
2018-09-28T16:42:57.091Z,54.49
2018-09-28T16:45:24.884Z,54.33
2018-09-28T16:47:54.351Z,54.40
2018-09-28T16:50:23.010Z,55.04
2018-09-28T16:52:50.564Z,54.83
2018-09-28T16:55:18.512Z,55.04
2018-09-28T16:57:46.096Z,55.17
2018-09-28T17:00:13.751Z,55.11
2018-09-28T17:02:41.668Z,55.10
2018-09-28T17:05:09.213Z,54.97
2018-09-28T17:07:36.782Z,55.43
2018-09-28T17:10:04.689Z,55.29
2018-09-28T17:12:33.353Z,55.88
2018-09-28T17:15:02.204Z,55.55
2018-09-28T17:17:30.229Z,55.98
2018-09-28T17:30:31.464Z,56.46
2018-09-28T17:32:59.443Z,56.01
2018-09-28T17:35:27.387Z,56.44
2018-09-28T17:37:55.583Z,56.82
2018-09-28T17:40:23.219Z,56.83
2018-09-28T17:42:51.189Z,56.40
2018-09-28T17:45:19.800Z,56.74
2018-09-28T17:47:49.078Z,56.93
2018-09-28T17:50:18.167Z,56.73
2018-09-28T17:52:46.775Z,56.85
2018-09-28T17:55:14.471Z,57.42
2018-09-28T17:57:42.604Z,57.78
2018-09-28T18:00:10.705Z,57.77
2018-09-28T18:02:38.304Z,57.54
2018-09-28T18:05:06.429Z,58.15
2018-09-28T18:07:34.733Z,57.38
2018-09-28T18:10:02.341Z,57.48
2018-09-28T18:12:31.831Z,58.02
2018-09-28T18:15:00.315Z,57.72
2018-09-28T18:17:30.859Z,57.96
2018-09-28T18:19:58.953Z,57.85
2018-09-28T18:22:27.325Z,58.14
2018-09-28T18:24:54.998Z,58.47
2018-09-28T18:27:25.369Z,58.73
2018-09-28T18:29:55.360Z,58.21
2018-09-28T18:32:22.910Z,58.48
2018-09-28T18:34:52.497Z,58.92
2018-09-28T18:37:23.371Z,59.11
2018-09-28T18:39:52.701Z,59.12
2018-09-28T18:42:21.603Z,58.91
2018-09-28T18:44:49.156Z,59.33
2018-09-28T18:47:17.394Z,59.10
2018-09-28T18:49:46.209Z,59.16
2018-09-28T18:52:14.632Z,59.44
2018-09-28T18:54:43.056Z,59.46
2018-09-28T18:57:11.304Z,59.24
2018-09-28T18:59:40.063Z,58.90
2018-09-28T19:02:08.247Z,59.02
2018-09-28T19:04:37.325Z,58.87
2018-09-28T19:07:07.098Z,59.10
2018-09-28T19:09:34.668Z,59.63
2018-09-28T19:12:04.316Z,59.84
2018-09-28T19:14:33.377Z,59.82
2018-09-28T19:17:04.473Z,60.01
2018-09-28T19:19:35.886Z,60.30
2018-09-28T19:22:03.479Z,59.94
2018-09-28T19:24:31.629Z,60.43
2018-09-28T19:27:00.241Z,59.85
2018-09-28T19:29:30.767Z,60.46
2018-09-28T19:31:59.743Z,60.84
2018-09-28T19:34:29.461Z,60.35
2018-09-28T19:36:57.861Z,60.26
2018-09-28T19:39:25.621Z,60.16
2018-09-28T19:41:54.563Z,60.78
2018-09-28T19:44:25.889Z,60.02
2018-09-28T19:46:53.473Z,60.68
2018-09-28T19:49:21.474Z,60.91
2018-09-28T19:51:49.015Z,60.75
2018-09-28T19:54:16.571Z,60.54
2018-09-28T19:56:44.465Z,60.99
2018-09-28T19:59:12.709Z,60.67
2018-09-28T20:01:41.616Z,61.61
2018-09-28T20:04:09.480Z,61.25
2018-09-28T20:06:38.339Z,61.55
2018-09-28T20:09:06.680Z,61.62
2018-09-28T20:11:34.548Z,61.96
2018-09-28T20:14:05.842Z,61.31
2018-09-28T20:16:33.406Z,61.23
2018-09-28T20:19:01.418Z,62.13
2018-09-28T20:21:29.675Z,61.60
2018-09-28T20:24:00.381Z,61.42
2018-09-28T20:26:31.961Z,61.79
2018-09-28T20:29:00.486Z,61.77
2018-09-28T20:31:30.007Z,62.09
2018-09-28T20:33:59.968Z,61.66
2018-09-28T20:36:28.424Z,62.27
2018-09-28T20:38:56.829Z,62.54
2018-09-28T20:41:25.701Z,62.15
2018-09-28T20:43:53.230Z,61.98
2018-09-28T20:46:21.544Z,62.45
2018-09-28T20:48:50.353Z,62.68
2018-09-28T20:51:19.102Z,62.55
2018-09-28T20:53:47.317Z,62.84
2018-09-28T20:56:16.403Z,62.73
2018-09-28T20:58:44.722Z,63.04
2018-09-28T21:01:15.383Z,62.60
2018-09-28T21:03:44.713Z,63.41
2018-09-28T21:06:12.551Z,63.30
2018-09-28T21:08:40.154Z,63.06
2018-09-28T21:11:08.679Z,63.66
2018-09-28T21:13:37.373Z,64.07
2018-09-28T21:16:05.591Z,64.16
2018-09-28T21:18:33.614Z,64.57
2018-09-28T21:21:01.205Z,64.33
2018-09-28T21:23:28.838Z,64.17
2018-09-28T21:25:57.585Z,64.20
2018-09-28T21:28:25.171Z,63.95
2018-09-28T21:30:52.704Z,63.82
2018-09-28T21:33:20.775Z,64.12
2018-09-28T21:35:49.281Z,63.87
2018-09-28T21:38:16.811Z,64.52
2018-09-28T21:40:45.623Z,64.34
2018-09-28T21:43:13.374Z,64.70
2018-09-28T21:45:40.930Z,64.10
2018-09-28T21:48:08.958Z,64.15
2018-09-28T21:50:36.561Z,64.51
2018-09-28T21:53:04.136Z,64.34
2018-09-28T21:55:32.206Z,64.86
2018-09-28T21:58:00.430Z,64.46
2018-09-28T22:00:27.969Z,64.91
2018-09-28T22:02:56.494Z,64.76
2018-09-28T22:05:24.808Z,64.77
2018-09-28T22:07:53.310Z,64.50
2018-09-28T22:10:23.596Z,64.75
2018-09-28T22:12:53.410Z,64.93
2018-09-28T22:15:21.649Z,65.04
2018-09-28T22:17:49.487Z,64.79
2018-09-28T22:20:17.951Z,65.25
2018-09-28T22:22:45.487Z,65.20
2018-09-28T22:25:14.158Z,65.13
2018-09-28T22:27:41.759Z,65.19
2018-09-28T22:30:09.318Z,65.41
2018-09-28T22:32:36.865Z,65.40
2018-09-28T22:35:04.781Z,65.67
2018-09-28T22:37:32.319Z,65.67
2018-09-28T22:40:00.864Z,65.67
2018-09-28T22:42:28.411Z,65.29
2018-09-28T22:44:57.549Z,65.59
2018-09-28T22:47:25.113Z,65.30
2018-09-28T22:49:52.665Z,65.40
2018-09-28T22:52:20.666Z,65.96
2018-09-28T22:54:48.230Z,65.44
2018-09-28T22:57:15.772Z,65.79
2018-09-28T22:59:44.300Z,65.91
2018-09-28T23:02:11.878Z,66.17
2018-09-28T23:04:40.113Z,66.17
2018-09-28T23:07:09.413Z,66.24
2018-09-28T23:09:36.959Z,66.51
2018-09-28T23:12:04.473Z,66.36
2018-09-28T23:14:33.383Z,65.93
2018-09-28T23:17:01.386Z,65.92
2018-09-28T23:19:29.772Z,65.97
2018-09-28T23:21:57.327Z,66.17
2018-09-28T23:24:25.241Z,66.07
2018-09-28T23:26:53.679Z,66.03
2018-09-28T23:29:21.364Z,66.43
2018-09-28T23:31:49.382Z,66.32
2018-09-28T23:34:16.931Z,66.55
2018-09-28T23:36:44.530Z,66.61
2018-09-28T23:39:12.516Z,66.70
2018-09-28T23:41:40.724Z,66.73
2018-09-28T23:44:08.559Z,66.94
2018-09-28T23:46:37.515Z,67.03
2018-09-28T23:49:05.264Z,66.93
2018-09-28T23:51:32.838Z,67.40
2018-09-28T23:54:00.823Z,67.28
2018-09-28T23:56:28.531Z,67.18
2018-09-28T23:58:57.482Z,67.43
